sensor_id;sensor_type;location;lat;lon;timestamp;P1;durP1;ratioP1;P2;durP2;ratioP2
22774;SDS011;11554;51.106;3.684;2023-04-03T00:00:00;11.00;;;8.10;;
22774;SDS011;11554;51.106;3.684;2023-04-03T00:05:00;10.40;;;7.80;;
22774;SDS011;11554;51.106;3.684;2023-04-03T00:10:00;10.40;;;7.80;;
22774;SDS011;11554;51.106;3.684;2023-04-03T00:15:00;11.60;;;7.90;;
22774;SDS011;11554;51.106;3.684;2023-04-03T00:20:00;11.60;;;7.90;;
22774;SDS011;11554;51.106;3.684;2023-04-03T00:25:00;10.00;;;6.90;;
22774;SDS011;11554;51.106;3.684;2023-04-03T00:30:00;10.00;;;6.90;;
22774;SDS011;11554;51.106;3.684;2023-04-03T00:35:00;11.40;;;6.90;;
22774;SDS011;11554;51.106;3.684;2023-04-03T00:40:00;11.40;;;6.90;;
22774;SDS011;11554;51.106;3.684;2023-04-03T00:50:00;12.60;;;7.30;;
22774;SDS011;11554;51.106;3.684;2023-04-03T00:55:04;12.80;;;7.00;;
22774;SDS011;11554;51.106;3.684;2023-04-03T01:00:04;12.80;;;7.00;;
22774;SDS011;11554;51.106;3.684;2023-04-03T01:05:00;11.30;;;6.70;;
22774;SDS011;11554;51.106;3.684;2023-04-03T01:10:04;11.30;;;6.70;;
22774;SDS011;11554;51.106;3.684;2023-04-03T01:15:05;14.10;;;7.90;;
22774;SDS011;11554;51.106;3.684;2023-04-03T01:20:21;14.10;;;7.90;;
22774;SDS011;11554;51.106;3.684;2023-04-03T01:25:00;11.80;;;7.40;;
22774;SDS011;11554;51.106;3.684;2023-04-03T01:30:00;11.80;;;7.40;;
22774;SDS011;11554;51.106;3.684;2023-04-03T01:35:00;9.80;;;7.00;;
22774;SDS011;11554;51.106;3.684;2023-04-03T01:40:00;9.80;;;7.00;;
22774;SDS011;11554;51.106;3.684;2023-04-03T01:45:00;10.50;;;6.50;;
22774;SDS011;11554;51.106;3.684;2023-04-03T01:50:00;10.50;;;6.50;;
22774;SDS011;11554;51.106;3.684;2023-04-03T01:55:00;12.50;;;6.70;;
22774;SDS011;11554;51.106;3.684;2023-04-03T02:00:00;12.50;;;6.70;;
22774;SDS011;11554;51.106;3.684;2023-04-03T02:05:00;12.30;;;6.80;;
22774;SDS011;11554;51.106;3.684;2023-04-03T02:10:00;12.30;;;6.80;;
22774;SDS011;11554;51.106;3.684;2023-04-03T02:15:00;13.70;;;7.30;;
22774;SDS011;11554;51.106;3.684;2023-04-03T02:20:00;13.70;;;7.30;;
22774;SDS011;11554;51.106;3.684;2023-04-03T02:25:00;15.30;;;7.60;;
22774;SDS011;11554;51.106;3.684;2023-04-03T02:30:00;15.30;;;7.60;;
22774;SDS011;11554;51.106;3.684;2023-04-03T02:35:00;10.50;;;6.40;;
22774;SDS011;11554;51.106;3.684;2023-04-03T02:40:00;10.50;;;6.40;;
22774;SDS011;11554;51.106;3.684;2023-04-03T02:45:00;12.20;;;6.60;;
22774;SDS011;11554;51.106;3.684;2023-04-03T02:50:00;12.20;;;6.60;;
22774;SDS011;11554;51.106;3.684;2023-04-03T02:55:00;14.00;;;7.10;;
22774;SDS011;11554;51.106;3.684;2023-04-03T03:00:00;14.00;;;7.10;;
22774;SDS011;11554;51.106;3.684;2023-04-03T03:05:00;13.20;;;7.70;;
22774;SDS011;11554;51.106;3.684;2023-04-03T03:10:00;13.20;;;7.70;;
22774;SDS011;11554;51.106;3.684;2023-04-03T03:15:00;12.80;;;7.40;;
22774;SDS011;11554;51.106;3.684;2023-04-03T03:20:00;12.80;;;7.40;;
22774;SDS011;11554;51.106;3.684;2023-04-03T03:25:00;12.00;;;7.30;;
22774;SDS011;11554;51.106;3.684;2023-04-03T03:30:00;12.00;;;7.30;;
22774;SDS011;11554;51.106;3.684;2023-04-03T03:35:00;11.00;;;7.30;;
22774;SDS011;11554;51.106;3.684;2023-04-03T03:40:00;11.00;;;7.30;;
22774;SDS011;11554;51.106;3.684;2023-04-03T03:45:00;9.90;;;6.30;;
22774;SDS011;11554;51.106;3.684;2023-04-03T03:50:00;9.90;;;6.30;;
22774;SDS011;11554;51.106;3.684;2023-04-03T03:55:00;11.00;;;6.20;;
22774;SDS011;11554;51.106;3.684;2023-04-03T04:00:00;11.00;;;6.20;;
22774;SDS011;11554;51.106;3.684;2023-04-03T04:05:00;9.00;;;6.00;;
22774;SDS011;11554;51.106;3.684;2023-04-03T04:10:00;9.00;;;6.00;;
22774;SDS011;11554;51.106;3.684;2023-04-03T04:15:00;9.90;;;6.20;;
22774;SDS011;11554;51.106;3.684;2023-04-03T04:20:00;9.90;;;6.20;;
22774;SDS011;11554;51.106;3.684;2023-04-03T04:25:00;10.70;;;6.50;;
22774;SDS011;11554;51.106;3.684;2023-04-03T04:30:00;10.70;;;6.50;;
22774;SDS011;11554;51.106;3.684;2023-04-03T04:35:00;10.60;;;6.50;;
22774;SDS011;11554;51.106;3.684;2023-04-03T04:40:00;10.60;;;6.50;;
22774;SDS011;11554;51.106;3.684;2023-04-03T04:45:00;13.60;;;7.40;;
22774;SDS011;11554;51.106;3.684;2023-04-03T04:50:00;13.60;;;7.40;;
22774;SDS011;11554;51.106;3.684;2023-04-03T04:55:00;14.40;;;7.80;;
22774;SDS011;11554;51.106;3.684;2023-04-03T05:00:00;14.40;;;7.80;;
22774;SDS011;11554;51.106;3.684;2023-04-03T05:05:00;11.50;;;7.80;;
22774;SDS011;11554;51.106;3.684;2023-04-03T05:10:00;11.50;;;7.80;;
22774;SDS011;11554;51.106;3.684;2023-04-03T05:15:00;12.80;;;8.30;;
22774;SDS011;11554;51.106;3.684;2023-04-03T05:20:00;12.80;;;8.30;;
22774;SDS011;11554;51.106;3.684;2023-04-03T05:25:00;14.50;;;8.80;;
22774;SDS011;11554;51.106;3.684;2023-04-03T05:30:00;14.50;;;8.80;;
22774;SDS011;11554;51.106;3.684;2023-04-03T05:35:00;12.00;;;7.80;;
22774;SDS011;11554;51.106;3.684;2023-04-03T05:40:00;12.00;;;7.80;;
22774;SDS011;11554;51.106;3.684;2023-04-03T05:45:00;16.70;;;9.40;;
22774;SDS011;11554;51.106;3.684;2023-04-03T05:50:00;16.70;;;9.40;;
22774;SDS011;11554;51.106;3.684;2023-04-03T05:55:00;17.30;;;10.50;;
22774;SDS011;11554;51.106;3.684;2023-04-03T06:00:00;17.30;;;10.50;;
22774;SDS011;11554;51.106;3.684;2023-04-03T06:05:00;24.20;;;14.50;;
22774;SDS011;11554;51.106;3.684;2023-04-03T06:10:00;24.20;;;14.50;;
22774;SDS011;11554;51.106;3.684;2023-04-03T06:15:00;28.00;;;17.80;;
22774;SDS011;11554;51.106;3.684;2023-04-03T06:20:00;28.00;;;17.80;;
22774;SDS011;11554;51.106;3.684;2023-04-03T06:25:00;32.40;;;23.40;;
22774;SDS011;11554;51.106;3.684;2023-04-03T06:30:00;32.40;;;23.40;;
22774;SDS011;11554;51.106;3.684;2023-04-03T06:35:00;22.20;;;16.90;;
22774;SDS011;11554;51.106;3.684;2023-04-03T06:40:00;22.20;;;16.90;;
22774;SDS011;11554;51.106;3.684;2023-04-03T06:45:00;19.80;;;13.90;;
22774;SDS011;11554;51.106;3.684;2023-04-03T06:50:00;19.80;;;13.90;;
22774;SDS011;11554;51.106;3.684;2023-04-03T06:55:00;15.50;;;10.00;;
22774;SDS011;11554;51.106;3.684;2023-04-03T07:00:01;15.50;;;10.00;;
22774;SDS011;11554;51.106;3.684;2023-04-03T07:05:00;13.40;;;7.90;;
22774;SDS011;11554;51.106;3.684;2023-04-03T07:10:00;13.40;;;7.90;;
22774;SDS011;11554;51.106;3.684;2023-04-03T07:15:00;15.00;;;7.70;;
22774;SDS011;11554;51.106;3.684;2023-04-03T07:20:00;15.00;;;7.70;;
22774;SDS011;11554;51.106;3.684;2023-04-03T07:25:00;15.90;;;8.20;;
22774;SDS011;11554;51.106;3.684;2023-04-03T07:30:00;15.90;;;8.20;;
22774;SDS011;11554;51.106;3.684;2023-04-03T07:35:00;11.80;;;7.00;;
22774;SDS011;11554;51.106;3.684;2023-04-03T07:40:00;11.80;;;7.00;;
22774;SDS011;11554;51.106;3.684;2023-04-03T07:45:00;11.60;;;7.30;;
22774;SDS011;11554;51.106;3.684;2023-04-03T07:50:00;11.60;;;7.30;;
22774;SDS011;11554;51.106;3.684;2023-04-03T07:55:00;9.10;;;5.70;;
22774;SDS011;11554;51.106;3.684;2023-04-03T08:00:00;9.10;;;5.70;;
22774;SDS011;11554;51.106;3.684;2023-04-03T08:05:00;11.60;;;6.70;;
22774;SDS011;11554;51.106;3.684;2023-04-03T08:10:00;11.60;;;6.70;;
22774;SDS011;11554;51.106;3.684;2023-04-03T08:15:00;8.80;;;6.10;;
22774;SDS011;11554;51.106;3.684;2023-04-03T08:20:00;8.80;;;6.10;;
22774;SDS011;11554;51.106;3.684;2023-04-03T08:25:00;11.80;;;7.20;;
22774;SDS011;11554;51.106;3.684;2023-04-03T08:30:01;11.80;;;7.20;;
22774;SDS011;11554;51.106;3.684;2023-04-03T08:35:00;8.60;;;5.80;;
22774;SDS011;11554;51.106;3.684;2023-04-03T08:40:00;8.60;;;5.80;;
22774;SDS011;11554;51.106;3.684;2023-04-03T08:45:08;9.10;;;5.50;;
22774;SDS011;11554;51.106;3.684;2023-04-03T08:50:02;9.10;;;5.50;;
22774;SDS011;11554;51.106;3.684;2023-04-03T08:55:02;9.20;;;5.10;;
22774;SDS011;11554;51.106;3.684;2023-04-03T09:00:15;9.20;;;5.10;;
22774;SDS011;11554;51.106;3.684;2023-04-03T09:05:02;6.70;;;4.20;;
22774;SDS011;11554;51.106;3.684;2023-04-03T09:10:01;6.70;;;4.20;;
22774;SDS011;11554;51.106;3.684;2023-04-03T09:15:06;7.20;;;3.40;;
22774;SDS011;11554;51.106;3.684;2023-04-03T09:20:09;7.20;;;3.40;;
22774;SDS011;11554;51.106;3.684;2023-04-03T09:25:05;7.10;;;3.60;;
22774;SDS011;11554;51.106;3.684;2023-04-03T09:30:00;7.10;;;3.60;;
22774;SDS011;11554;51.106;3.684;2023-04-03T09:35:04;7.90;;;2.90;;
22774;SDS011;11554;51.106;3.684;2023-04-03T09:40:00;7.90;;;2.90;;
22774;SDS011;11554;51.106;3.684;2023-04-03T09:45:02;4.70;;;2.60;;
22774;SDS011;11554;51.106;3.684;2023-04-03T09:50:19;4.70;;;2.60;;
22774;SDS011;11554;51.106;3.684;2023-04-03T09:55:06;6.60;;;3.00;;
22774;SDS011;11554;51.106;3.684;2023-04-03T10:00:01;6.60;;;3.00;;
22774;SDS011;11554;51.106;3.684;2023-04-03T10:05:00;7.30;;;3.00;;
22774;SDS011;11554;51.106;3.684;2023-04-03T10:10:03;7.30;;;3.00;;
22774;SDS011;11554;51.106;3.684;2023-04-03T10:15:00;5.50;;;2.20;;
22774;SDS011;11554;51.106;3.684;2023-04-03T10:20:05;5.50;;;2.20;;
22774;SDS011;11554;51.106;3.684;2023-04-03T10:25:04;5.00;;;2.10;;
22774;SDS011;11554;51.106;3.684;2023-04-03T10:30:06;5.00;;;2.10;;
22774;SDS011;11554;51.106;3.684;2023-04-03T10:35:08;4.60;;;2.10;;
22774;SDS011;11554;51.106;3.684;2023-04-03T10:40:02;4.60;;;2.10;;
22774;SDS011;11554;51.106;3.684;2023-04-03T10:45:14;5.80;;;2.40;;
22774;SDS011;11554;51.106;3.684;2023-04-03T10:50:14;5.80;;;2.40;;
22774;SDS011;11554;51.106;3.684;2023-04-03T10:55:09;6.00;;;2.30;;
22774;SDS011;11554;51.106;3.684;2023-04-03T11:00:04;6.00;;;2.30;;
22774;SDS011;11554;51.106;3.684;2023-04-03T11:05:03;6.10;;;2.00;;
22774;SDS011;11554;51.106;3.684;2023-04-03T11:10:03;6.10;;;2.00;;
22774;SDS011;11554;51.106;3.684;2023-04-03T11:15:02;4.90;;;2.20;;
22774;SDS011;11554;51.106;3.684;2023-04-03T11:20:05;4.90;;;2.20;;
22774;SDS011;11554;51.106;3.684;2023-04-03T11:25:06;4.70;;;1.80;;
22774;SDS011;11554;51.106;3.684;2023-04-03T11:30:02;4.70;;;1.80;;
22774;SDS011;11554;51.106;3.684;2023-04-03T11:35:01;7.30;;;2.20;;
22774;SDS011;11554;51.106;3.684;2023-04-03T11:40:02;7.30;;;2.20;;
22774;SDS011;11554;51.106;3.684;2023-04-03T11:45:17;4.70;;;1.90;;
22774;SDS011;11554;51.106;3.684;2023-04-03T11:50:02;4.70;;;1.90;;
22774;SDS011;11554;51.106;3.684;2023-04-03T11:55:00;5.70;;;2.00;;
22774;SDS011;11554;51.106;3.684;2023-04-03T12:10:00;5.60;;;1.90;;
22774;SDS011;11554;51.106;3.684;2023-04-03T12:15:19;5.00;;;1.90;;
22774;SDS011;11554;51.106;3.684;2023-04-03T12:20:00;5.00;;;1.90;;
22774;SDS011;11554;51.106;3.684;2023-04-03T12:30:05;5.00;;;2.10;;
22774;SDS011;11554;51.106;3.684;2023-04-03T12:35:12;5.50;;;1.80;;
22774;SDS011;11554;51.106;3.684;2023-04-03T12:40:07;5.50;;;1.80;;
22774;SDS011;11554;51.106;3.684;2023-04-03T12:45:02;3.70;;;1.50;;
22774;SDS011;11554;51.106;3.684;2023-04-03T12:50:01;3.70;;;1.50;;
22774;SDS011;11554;51.106;3.684;2023-04-03T12:55:01;5.20;;;1.60;;
22774;SDS011;11554;51.106;3.684;2023-04-03T13:05:06;3.60;;;1.40;;
22774;SDS011;11554;51.106;3.684;2023-04-03T13:10:09;3.60;;;1.40;;
22774;SDS011;11554;51.106;3.684;2023-04-03T13:15:02;6.30;;;2.00;;
22774;SDS011;11554;51.106;3.684;2023-04-03T13:20:18;6.30;;;2.00;;
22774;SDS011;11554;51.106;3.684;2023-04-03T13:25:04;3.20;;;1.40;;
22774;SDS011;11554;51.106;3.684;2023-04-03T13:30:02;3.20;;;1.40;;
22774;SDS011;11554;51.106;3.684;2023-04-03T13:35:00;3.60;;;1.40;;
22774;SDS011;11554;51.106;3.684;2023-04-03T13:40:08;3.60;;;1.40;;
22774;SDS011;11554;51.106;3.684;2023-04-03T13:45:11;4.50;;;1.60;;
22774;SDS011;11554;51.106;3.684;2023-04-03T13:50:12;4.50;;;1.60;;
22774;SDS011;11554;51.106;3.684;2023-04-03T13:55:09;3.50;;;1.30;;
22774;SDS011;11554;51.106;3.684;2023-04-03T14:05:01;4.00;;;1.50;;
22774;SDS011;11554;51.106;3.684;2023-04-03T14:10:00;4.00;;;1.50;;
22774;SDS011;11554;51.106;3.684;2023-04-03T14:15:02;3.90;;;1.20;;
22774;SDS011;11554;51.106;3.684;2023-04-03T14:20:00;3.90;;;1.20;;
22774;SDS011;11554;51.106;3.684;2023-04-03T14:25:01;4.50;;;2.20;;
22774;SDS011;11554;51.106;3.684;2023-04-03T14:30:00;4.50;;;2.20;;
22774;SDS011;11554;51.106;3.684;2023-04-03T14:35:00;2.60;;;1.10;;
22774;SDS011;11554;51.106;3.684;2023-04-03T14:40:02;2.60;;;1.10;;
22774;SDS011;11554;51.106;3.684;2023-04-03T14:45:03;2.70;;;1.10;;
22774;SDS011;11554;51.106;3.684;2023-04-03T14:50:02;2.70;;;1.10;;
22774;SDS011;11554;51.106;3.684;2023-04-03T14:55:03;5.90;;;1.90;;
22774;SDS011;11554;51.106;3.684;2023-04-03T15:00:01;5.90;;;1.90;;
22774;SDS011;11554;51.106;3.684;2023-04-03T15:05:02;3.40;;;1.40;;
22774;SDS011;11554;51.106;3.684;2023-04-03T15:10:02;3.40;;;1.40;;
22774;SDS011;11554;51.106;3.684;2023-04-03T15:15:00;4.40;;;1.40;;
22774;SDS011;11554;51.106;3.684;2023-04-03T15:20:01;4.40;;;1.40;;
22774;SDS011;11554;51.106;3.684;2023-04-03T15:25:00;4.00;;;1.30;;
22774;SDS011;11554;51.106;3.684;2023-04-03T15:30:00;4.00;;;1.30;;
22774;SDS011;11554;51.106;3.684;2023-04-03T15:35:00;3.20;;;1.00;;
22774;SDS011;11554;51.106;3.684;2023-04-03T15:40:01;3.20;;;1.00;;
22774;SDS011;11554;51.106;3.684;2023-04-03T15:45:00;5.60;;;1.20;;
22774;SDS011;11554;51.106;3.684;2023-04-03T15:50:00;5.60;;;1.20;;
22774;SDS011;11554;51.106;3.684;2023-04-03T15:55:00;6.50;;;1.10;;
22774;SDS011;11554;51.106;3.684;2023-04-03T16:00:00;6.50;;;1.10;;
22774;SDS011;11554;51.106;3.684;2023-04-03T16:05:00;4.90;;;1.20;;
22774;SDS011;11554;51.106;3.684;2023-04-03T16:10:00;4.90;;;1.20;;
22774;SDS011;11554;51.106;3.684;2023-04-03T16:15:00;3.20;;;1.20;;
22774;SDS011;11554;51.106;3.684;2023-04-03T16:20:00;3.20;;;1.20;;
22774;SDS011;11554;51.106;3.684;2023-04-03T16:25:01;4.00;;;1.10;;
22774;SDS011;11554;51.106;3.684;2023-04-03T16:30:00;4.00;;;1.10;;
22774;SDS011;11554;51.106;3.684;2023-04-03T16:35:00;4.30;;;1.40;;
22774;SDS011;11554;51.106;3.684;2023-04-03T16:40:00;4.30;;;1.40;;
22774;SDS011;11554;51.106;3.684;2023-04-03T16:45:00;3.30;;;1.30;;
22774;SDS011;11554;51.106;3.684;2023-04-03T16:50:00;3.30;;;1.30;;
22774;SDS011;11554;51.106;3.684;2023-04-03T16:55:00;4.70;;;1.40;;
22774;SDS011;11554;51.106;3.684;2023-04-03T17:00:00;4.70;;;1.40;;
22774;SDS011;11554;51.106;3.684;2023-04-03T17:05:00;3.30;;;1.20;;
22774;SDS011;11554;51.106;3.684;2023-04-03T17:10:00;3.30;;;1.20;;
22774;SDS011;11554;51.106;3.684;2023-04-03T17:15:00;4.50;;;1.70;;
22774;SDS011;11554;51.106;3.684;2023-04-03T17:20:00;4.50;;;1.70;;
22774;SDS011;11554;51.106;3.684;2023-04-03T17:25:00;3.80;;;1.50;;
22774;SDS011;11554;51.106;3.684;2023-04-03T17:30:00;3.80;;;1.50;;
22774;SDS011;11554;51.106;3.684;2023-04-03T17:35:00;4.40;;;1.60;;
22774;SDS011;11554;51.106;3.684;2023-04-03T17:40:00;4.40;;;1.60;;
22774;SDS011;11554;51.106;3.684;2023-04-03T17:45:00;4.60;;;1.60;;
22774;SDS011;11554;51.106;3.684;2023-04-03T17:50:00;4.60;;;1.60;;
22774;SDS011;11554;51.106;3.684;2023-04-03T17:55:00;6.80;;;2.60;;
22774;SDS011;11554;51.106;3.684;2023-04-03T18:00:00;6.80;;;2.60;;
22774;SDS011;11554;51.106;3.684;2023-04-03T18:05:00;4.40;;;1.50;;
22774;SDS011;11554;51.106;3.684;2023-04-03T18:10:00;4.40;;;1.50;;
22774;SDS011;11554;51.106;3.684;2023-04-03T18:15:01;5.00;;;1.90;;
22774;SDS011;11554;51.106;3.684;2023-04-03T18:20:00;5.00;;;1.90;;
22774;SDS011;11554;51.106;3.684;2023-04-03T18:25:00;4.20;;;2.00;;
22774;SDS011;11554;51.106;3.684;2023-04-03T18:30:05;4.20;;;2.00;;
22774;SDS011;11554;51.106;3.684;2023-04-03T18:35:00;7.60;;;2.40;;
22774;SDS011;11554;51.106;3.684;2023-04-03T18:40:00;7.60;;;2.40;;
22774;SDS011;11554;51.106;3.684;2023-04-03T18:45:04;6.10;;;2.90;;
22774;SDS011;11554;51.106;3.684;2023-04-03T18:50:00;6.10;;;2.90;;
22774;SDS011;11554;51.106;3.684;2023-04-03T18:55:00;6.30;;;2.80;;
22774;SDS011;11554;51.106;3.684;2023-04-03T19:00:00;6.30;;;2.80;;
22774;SDS011;11554;51.106;3.684;2023-04-03T19:05:00;8.00;;;3.80;;
22774;SDS011;11554;51.106;3.684;2023-04-03T19:10:00;8.00;;;3.80;;
22774;SDS011;11554;51.106;3.684;2023-04-03T19:15:00;7.80;;;3.00;;
22774;SDS011;11554;51.106;3.684;2023-04-03T19:20:00;7.80;;;3.00;;
22774;SDS011;11554;51.106;3.684;2023-04-03T19:25:00;6.30;;;2.60;;
22774;SDS011;11554;51.106;3.684;2023-04-03T19:30:00;6.30;;;2.60;;
22774;SDS011;11554;51.106;3.684;2023-04-03T19:35:00;6.80;;;2.70;;
22774;SDS011;11554;51.106;3.684;2023-04-03T19:40:00;6.80;;;2.70;;
22774;SDS011;11554;51.106;3.684;2023-04-03T19:45:00;8.40;;;3.40;;
22774;SDS011;11554;51.106;3.684;2023-04-03T19:50:00;8.40;;;3.40;;
22774;SDS011;11554;51.106;3.684;2023-04-03T19:55:00;6.90;;;2.80;;
22774;SDS011;11554;51.106;3.684;2023-04-03T20:00:00;6.90;;;2.80;;
22774;SDS011;11554;51.106;3.684;2023-04-03T20:05:00;7.20;;;2.50;;
22774;SDS011;11554;51.106;3.684;2023-04-03T20:10:00;7.20;;;2.50;;
22774;SDS011;11554;51.106;3.684;2023-04-03T20:15:00;7.90;;;2.80;;
22774;SDS011;11554;51.106;3.684;2023-04-03T20:20:00;7.90;;;2.80;;
22774;SDS011;11554;51.106;3.684;2023-04-03T20:25:01;6.40;;;3.10;;
22774;SDS011;11554;51.106;3.684;2023-04-03T20:30:01;6.40;;;3.10;;
22774;SDS011;11554;51.106;3.684;2023-04-03T20:35:00;6.00;;;2.60;;
22774;SDS011;11554;51.106;3.684;2023-04-03T20:40:00;6.00;;;2.60;;
22774;SDS011;11554;51.106;3.684;2023-04-03T20:45:00;7.20;;;2.60;;
22774;SDS011;11554;51.106;3.684;2023-04-03T20:50:00;7.20;;;2.60;;
22774;SDS011;11554;51.106;3.684;2023-04-03T20:55:00;6.90;;;2.80;;
22774;SDS011;11554;51.106;3.684;2023-04-03T21:00:00;6.90;;;2.80;;
22774;SDS011;11554;51.106;3.684;2023-04-03T21:05:00;5.90;;;2.20;;
22774;SDS011;11554;51.106;3.684;2023-04-03T21:20:00;7.10;;;2.10;;
22774;SDS011;11554;51.106;3.684;2023-04-03T21:25:00;5.10;;;2.10;;
22774;SDS011;11554;51.106;3.684;2023-04-03T21:30:00;5.10;;;2.10;;
22774;SDS011;11554;51.106;3.684;2023-04-03T21:35:00;7.70;;;2.20;;
22774;SDS011;11554;51.106;3.684;2023-04-03T21:40:00;7.70;;;2.20;;
22774;SDS011;11554;51.106;3.684;2023-04-03T21:45:00;7.40;;;2.30;;
22774;SDS011;11554;51.106;3.684;2023-04-03T21:50:00;7.40;;;2.30;;
22774;SDS011;11554;51.106;3.684;2023-04-03T21:55:00;6.60;;;2.00;;
22774;SDS011;11554;51.106;3.684;2023-04-03T22:00:00;6.60;;;2.00;;
22774;SDS011;11554;51.106;3.684;2023-04-03T22:05:00;6.40;;;1.90;;
22774;SDS011;11554;51.106;3.684;2023-04-03T22:10:00;6.40;;;1.90;;
22774;SDS011;11554;51.106;3.684;2023-04-03T22:15:00;9.40;;;2.20;;
22774;SDS011;11554;51.106;3.684;2023-04-03T22:20:00;9.40;;;2.20;;
22774;SDS011;11554;51.106;3.684;2023-04-03T22:25:00;6.20;;;1.90;;
22774;SDS011;11554;51.106;3.684;2023-04-03T22:30:00;6.20;;;1.90;;
22774;SDS011;11554;51.106;3.684;2023-04-03T22:35:00;4.90;;;2.20;;
22774;SDS011;11554;51.106;3.684;2023-04-03T22:40:00;4.90;;;2.20;;
22774;SDS011;11554;51.106;3.684;2023-04-03T22:45:00;5.00;;;1.90;;
22774;SDS011;11554;51.106;3.684;2023-04-03T22:50:00;5.00;;;1.90;;
22774;SDS011;11554;51.106;3.684;2023-04-03T22:55:00;5.80;;;2.30;;
22774;SDS011;11554;51.106;3.684;2023-04-03T23:00:00;5.80;;;2.30;;
22774;SDS011;11554;51.106;3.684;2023-04-03T23:05:00;6.00;;;2.10;;
22774;SDS011;11554;51.106;3.684;2023-04-03T23:10:00;6.00;;;2.10;;
22774;SDS011;11554;51.106;3.684;2023-04-03T23:15:00;5.20;;;2.10;;
22774;SDS011;11554;51.106;3.684;2023-04-03T23:20:00;5.20;;;2.10;;
22774;SDS011;11554;51.106;3.684;2023-04-03T23:25:00;7.10;;;2.00;;
22774;SDS011;11554;51.106;3.684;2023-04-03T23:30:00;7.10;;;2.00;;
22774;SDS011;11554;51.106;3.684;2023-04-03T23:35:00;6.00;;;2.00;;
22774;SDS011;11554;51.106;3.684;2023-04-03T23:40:00;6.00;;;2.00;;
22774;SDS011;11554;51.106;3.684;2023-04-03T23:45:00;6.70;;;1.90;;
22774;SDS011;11554;51.106;3.684;2023-04-03T23:50:00;6.70;;;1.90;;
22774;SDS011;11554;51.106;3.684;2023-04-03T23:55:00;4.80;;;1.90;;
